sensor_id;sensor_type;location;lat;lon;timestamp;pressure;altitude;pressure_sealevel;temperature
71463;BMP180;59266;52.608;13.260;2022-10-30T00:00:35;101506.00;;;14.20
71463;BMP180;59266;52.608;13.260;2022-10-30T00:03:01;101504.00;;;14.20
71463;BMP180;59266;52.608;13.260;2022-10-30T00:05:29;101503.00;;;14.20
71463;BMP180;59266;52.608;13.260;2022-10-30T00:07:56;101500.00;;;14.30
71463;BMP180;59266;52.608;13.260;2022-10-30T00:10:24;101503.00;;;14.20
71463;BMP180;59266;52.608;13.260;2022-10-30T00:12:50;101506.00;;;14.20
71463;BMP180;59266;52.608;13.260;2022-10-30T00:15:17;101502.00;;;14.20
71463;BMP180;59266;52.608;13.260;2022-10-30T00:17:43;101503.00;;;14.10
71463;BMP180;59266;52.608;13.260;2022-10-30T00:20:10;101503.00;;;14.10
71463;BMP180;59266;52.608;13.260;2022-10-30T00:22:36;101494.00;;;14.10
71463;BMP180;59266;52.608;13.260;2022-10-30T00:25:03;101496.00;;;14.10
71463;BMP180;59266;52.608;13.260;2022-10-30T00:27:30;101501.00;;;14.00
71463;BMP180;59266;52.608;13.260;2022-10-30T00:29:57;101497.00;;;14.00
71463;BMP180;59266;52.608;13.260;2022-10-30T00:32:23;101484.00;;;14.00
71463;BMP180;59266;52.608;13.260;2022-10-30T00:34:49;101483.00;;;14.00
71463;BMP180;59266;52.608;13.260;2022-10-30T00:37:16;101490.00;;;14.00
71463;BMP180;59266;52.608;13.260;2022-10-30T00:39:44;101485.00;;;13.90
71463;BMP180;59266;52.608;13.260;2022-10-30T00:42:14;101485.00;;;13.90
71463;BMP180;59266;52.608;13.260;2022-10-30T00:47:31;101502.00;;;13.80
71463;BMP180;59266;52.608;13.260;2022-10-30T00:50:12;101490.00;;;13.80
71463;BMP180;59266;52.608;13.260;2022-10-30T00:52:46;101482.00;;;13.70
71463;BMP180;59266;52.608;13.260;2022-10-30T00:55:18;101474.00;;;13.70
71463;BMP180;59266;52.608;13.260;2022-10-30T00:57:47;101465.00;;;13.70
71463;BMP180;59266;52.608;13.260;2022-10-30T01:00:18;101467.00;;;13.60
71463;BMP180;59266;52.608;13.260;2022-10-30T01:02:45;101473.00;;;13.60
71463;BMP180;59266;52.608;13.260;2022-10-30T01:05:14;101467.00;;;13.50
71463;BMP180;59266;52.608;13.260;2022-10-30T01:07:42;101464.00;;;13.60
71463;BMP180;59266;52.608;13.260;2022-10-30T01:10:09;101463.00;;;13.60
71463;BMP180;59266;52.608;13.260;2022-10-30T01:12:37;101458.00;;;13.60
71463;BMP180;59266;52.608;13.260;2022-10-30T01:15:04;101459.00;;;13.60
71463;BMP180;59266;52.608;13.260;2022-10-30T01:23:09;101450.00;;;13.40
71463;BMP180;59266;52.608;13.260;2022-10-30T01:25:56;101450.00;;;13.30
71463;BMP180;59266;52.608;13.260;2022-10-30T01:28:44;101448.00;;;13.40
71463;BMP180;59266;52.608;13.260;2022-10-30T01:34:19;101452.00;;;13.30
71463;BMP180;59266;52.608;13.260;2022-10-30T01:37:10;101450.00;;;13.20
71463;BMP180;59266;52.608;13.260;2022-10-30T01:39:40;101451.00;;;13.20
71463;BMP180;59266;52.608;13.260;2022-10-30T01:45:21;101443.00;;;13.10
71463;BMP180;59266;52.608;13.260;2022-10-30T01:50:55;101427.00;;;13.00
71463;BMP180;59266;52.608;13.260;2022-10-30T01:53:42;101424.00;;;13.00
71463;BMP180;59266;52.608;13.260;2022-10-30T01:59:06;101428.00;;;12.90
71463;BMP180;59266;52.608;13.260;2022-10-30T02:01:35;101424.00;;;12.80
71463;BMP180;59266;52.608;13.260;2022-10-30T02:04:03;101423.00;;;12.90
71463;BMP180;59266;52.608;13.260;2022-10-30T02:06:34;101415.00;;;12.80
71463;BMP180;59266;52.608;13.260;2022-10-30T02:09:01;101408.00;;;12.80
71463;BMP180;59266;52.608;13.260;2022-10-30T02:11:30;101410.00;;;12.80
71463;BMP180;59266;52.608;13.260;2022-10-30T02:14:00;101407.00;;;12.80
71463;BMP180;59266;52.608;13.260;2022-10-30T02:16:27;101418.00;;;12.70
71463;BMP180;59266;52.608;13.260;2022-10-30T02:18:53;101411.00;;;12.70
71463;BMP180;59266;52.608;13.260;2022-10-30T02:21:20;101417.00;;;12.70
71463;BMP180;59266;52.608;13.260;2022-10-30T02:23:46;101422.00;;;12.70
71463;BMP180;59266;52.608;13.260;2022-10-30T02:26:13;101419.00;;;12.70
71463;BMP180;59266;52.608;13.260;2022-10-30T02:28:39;101414.00;;;12.70
71463;BMP180;59266;52.608;13.260;2022-10-30T02:31:06;101415.00;;;12.60
71463;BMP180;59266;52.608;13.260;2022-10-30T02:33:32;101414.00;;;12.60
71463;BMP180;59266;52.608;13.260;2022-10-30T02:35:59;101409.00;;;12.60
71463;BMP180;59266;52.608;13.260;2022-10-30T02:38:25;101400.00;;;12.50
71463;BMP180;59266;52.608;13.260;2022-10-30T02:40:52;101401.00;;;12.60
71463;BMP180;59266;52.608;13.260;2022-10-30T02:43:18;101393.00;;;12.50
71463;BMP180;59266;52.608;13.260;2022-10-30T02:45:49;101396.00;;;12.50
71463;BMP180;59266;52.608;13.260;2022-10-30T02:48:16;101389.00;;;12.50
71463;BMP180;59266;52.608;13.260;2022-10-30T02:50:43;101389.00;;;12.50
71463;BMP180;59266;52.608;13.260;2022-10-30T02:53:09;101392.00;;;12.40
71463;BMP180;59266;52.608;13.260;2022-10-30T02:55:36;101394.00;;;12.40
71463;BMP180;59266;52.608;13.260;2022-10-30T02:58:02;101393.00;;;12.40
71463;BMP180;59266;52.608;13.260;2022-10-30T03:00:29;101388.00;;;12.40
71463;BMP180;59266;52.608;13.260;2022-10-30T03:02:56;101403.00;;;12.30
71463;BMP180;59266;52.608;13.260;2022-10-30T03:05:23;101408.00;;;12.30
71463;BMP180;59266;52.608;13.260;2022-10-30T03:07:49;101409.00;;;12.30
71463;BMP180;59266;52.608;13.260;2022-10-30T03:10:17;101404.00;;;12.30
71463;BMP180;59266;52.608;13.260;2022-10-30T03:12:43;101409.00;;;12.20
71463;BMP180;59266;52.608;13.260;2022-10-30T03:15:10;101410.00;;;12.20
71463;BMP180;59266;52.608;13.260;2022-10-30T03:17:36;101402.00;;;12.10
71463;BMP180;59266;52.608;13.260;2022-10-30T03:20:03;101401.00;;;12.20
71463;BMP180;59266;52.608;13.260;2022-10-30T03:22:29;101394.00;;;12.20
71463;BMP180;59266;52.608;13.260;2022-10-30T03:24:56;101396.00;;;12.20
71463;BMP180;59266;52.608;13.260;2022-10-30T03:27:22;101398.00;;;12.20
71463;BMP180;59266;52.608;13.260;2022-10-30T03:29:49;101386.00;;;12.30
71463;BMP180;59266;52.608;13.260;2022-10-30T03:32:15;101387.00;;;12.30
71463;BMP180;59266;52.608;13.260;2022-10-30T03:34:42;101387.00;;;12.40
71463;BMP180;59266;52.608;13.260;2022-10-30T03:37:09;101394.00;;;12.30
71463;BMP180;59266;52.608;13.260;2022-10-30T03:39:35;101385.00;;;12.30
71463;BMP180;59266;52.608;13.260;2022-10-30T03:42:02;101374.00;;;12.40
71463;BMP180;59266;52.608;13.260;2022-10-30T03:44:28;101368.00;;;12.40
71463;BMP180;59266;52.608;13.260;2022-10-30T03:46:55;101366.00;;;12.40
71463;BMP180;59266;52.608;13.260;2022-10-30T03:49:21;101370.00;;;12.70
71463;BMP180;59266;52.608;13.260;2022-10-30T03:51:48;101381.00;;;12.80
71463;BMP180;59266;52.608;13.260;2022-10-30T03:54:14;101397.00;;;12.80
71463;BMP180;59266;52.608;13.260;2022-10-30T03:56:41;101390.00;;;12.90
71463;BMP180;59266;52.608;13.260;2022-10-30T03:59:07;101378.00;;;12.90
71463;BMP180;59266;52.608;13.260;2022-10-30T04:01:33;101367.00;;;12.90
71463;BMP180;59266;52.608;13.260;2022-10-30T04:04:00;101373.00;;;12.90
71463;BMP180;59266;52.608;13.260;2022-10-30T04:06:27;101386.00;;;12.90
71463;BMP180;59266;52.608;13.260;2022-10-30T04:08:54;101390.00;;;12.90
71463;BMP180;59266;52.608;13.260;2022-10-30T04:11:20;101388.00;;;13.00
71463;BMP180;59266;52.608;13.260;2022-10-30T04:13:47;101404.00;;;13.00
71463;BMP180;59266;52.608;13.260;2022-10-30T04:16:13;101409.00;;;13.00
71463;BMP180;59266;52.608;13.260;2022-10-30T04:18:40;101408.00;;;13.00
71463;BMP180;59266;52.608;13.260;2022-10-30T04:21:06;101416.00;;;13.00
71463;BMP180;59266;52.608;13.260;2022-10-30T04:23:32;101432.00;;;13.00
71463;BMP180;59266;52.608;13.260;2022-10-30T04:25:59;101425.00;;;13.00
71463;BMP180;59266;52.608;13.260;2022-10-30T04:28:26;101426.00;;;12.90
71463;BMP180;59266;52.608;13.260;2022-10-30T04:30:53;101406.00;;;12.90
71463;BMP180;59266;52.608;13.260;2022-10-30T04:33:20;101397.00;;;12.90
71463;BMP180;59266;52.608;13.260;2022-10-30T04:35:46;101405.00;;;12.80
71463;BMP180;59266;52.608;13.260;2022-10-30T04:38:14;101413.00;;;12.80
71463;BMP180;59266;52.608;13.260;2022-10-30T04:40:42;101412.00;;;12.80
71463;BMP180;59266;52.608;13.260;2022-10-30T04:43:09;101396.00;;;12.90
71463;BMP180;59266;52.608;13.260;2022-10-30T04:45:36;101390.00;;;12.90
71463;BMP180;59266;52.608;13.260;2022-10-30T04:48:12;101392.00;;;12.80
71463;BMP180;59266;52.608;13.260;2022-10-30T04:50:38;101400.00;;;12.90
71463;BMP180;59266;52.608;13.260;2022-10-30T04:53:08;101387.00;;;12.90
71463;BMP180;59266;52.608;13.260;2022-10-30T04:55:35;101377.00;;;12.90
71463;BMP180;59266;52.608;13.260;2022-10-30T04:58:02;101386.00;;;13.00
71463;BMP180;59266;52.608;13.260;2022-10-30T05:00:29;101386.00;;;12.90
71463;BMP180;59266;52.608;13.260;2022-10-30T05:03:02;101387.00;;;12.90
71463;BMP180;59266;52.608;13.260;2022-10-30T05:05:30;101377.00;;;13.00
71463;BMP180;59266;52.608;13.260;2022-10-30T05:07:56;101373.00;;;13.00
71463;BMP180;59266;52.608;13.260;2022-10-30T05:10:23;101379.00;;;13.00
71463;BMP180;59266;52.608;13.260;2022-10-30T05:12:51;101364.00;;;12.90
71463;BMP180;59266;52.608;13.260;2022-10-30T05:15:19;101366.00;;;13.00
71463;BMP180;59266;52.608;13.260;2022-10-30T05:17:50;101359.00;;;12.90
71463;BMP180;59266;52.608;13.260;2022-10-30T05:20:16;101372.00;;;13.00
71463;BMP180;59266;52.608;13.260;2022-10-30T05:22:44;101361.00;;;13.00
71463;BMP180;59266;52.608;13.260;2022-10-30T05:25:10;101347.00;;;13.20
71463;BMP180;59266;52.608;13.260;2022-10-30T05:27:37;101338.00;;;13.10
71463;BMP180;59266;52.608;13.260;2022-10-30T05:30:04;101342.00;;;13.10
71463;BMP180;59266;52.608;13.260;2022-10-30T05:32:30;101339.00;;;13.10
71463;BMP180;59266;52.608;13.260;2022-10-30T05:34:57;101339.00;;;13.10
71463;BMP180;59266;52.608;13.260;2022-10-30T05:37:24;101370.00;;;13.30
71463;BMP180;59266;52.608;13.260;2022-10-30T05:39:50;101374.00;;;13.30
71463;BMP180;59266;52.608;13.260;2022-10-30T05:42:17;101373.00;;;13.30
71463;BMP180;59266;52.608;13.260;2022-10-30T05:44:43;101358.00;;;13.30
71463;BMP180;59266;52.608;13.260;2022-10-30T05:47:26;101351.00;;;13.30
71463;BMP180;59266;52.608;13.260;2022-10-30T05:49:53;101375.00;;;13.30
71463;BMP180;59266;52.608;13.260;2022-10-30T05:52:19;101366.00;;;13.20
71463;BMP180;59266;52.608;13.260;2022-10-30T05:54:46;101367.00;;;13.30
71463;BMP180;59266;52.608;13.260;2022-10-30T05:57:12;101348.00;;;13.30
71463;BMP180;59266;52.608;13.260;2022-10-30T05:59:39;101365.00;;;13.30
71463;BMP180;59266;52.608;13.260;2022-10-30T06:02:05;101351.00;;;13.30
71463;BMP180;59266;52.608;13.260;2022-10-30T06:04:32;101367.00;;;13.30
71463;BMP180;59266;52.608;13.260;2022-10-30T06:06:58;101345.00;;;13.30
71463;BMP180;59266;52.608;13.260;2022-10-30T06:09:25;101343.00;;;13.30
71463;BMP180;59266;52.608;13.260;2022-10-30T06:11:52;101341.00;;;13.30
71463;BMP180;59266;52.608;13.260;2022-10-30T06:14:18;101336.00;;;13.40
71463;BMP180;59266;52.608;13.260;2022-10-30T06:16:45;101331.00;;;13.40
71463;BMP180;59266;52.608;13.260;2022-10-30T06:19:11;101331.00;;;13.30
71463;BMP180;59266;52.608;13.260;2022-10-30T06:21:44;101334.00;;;13.40
71463;BMP180;59266;52.608;13.260;2022-10-30T06:24:10;101338.00;;;13.50
71463;BMP180;59266;52.608;13.260;2022-10-30T06:26:37;101342.00;;;13.50
71463;BMP180;59266;52.608;13.260;2022-10-30T06:29:03;101341.00;;;13.50
71463;BMP180;59266;52.608;13.260;2022-10-30T06:31:30;101333.00;;;13.60
71463;BMP180;59266;52.608;13.260;2022-10-30T06:33:56;101328.00;;;13.60
71463;BMP180;59266;52.608;13.260;2022-10-30T06:36:23;101323.00;;;13.60
71463;BMP180;59266;52.608;13.260;2022-10-30T06:38:49;101321.00;;;13.60
71463;BMP180;59266;52.608;13.260;2022-10-30T06:41:16;101327.00;;;13.60
71463;BMP180;59266;52.608;13.260;2022-10-30T06:43:42;101315.00;;;13.60
71463;BMP180;59266;52.608;13.260;2022-10-30T06:46:09;101328.00;;;13.60
71463;BMP180;59266;52.608;13.260;2022-10-30T06:48:35;101337.00;;;13.80
71463;BMP180;59266;52.608;13.260;2022-10-30T06:51:02;101355.00;;;13.80
71463;BMP180;59266;52.608;13.260;2022-10-30T06:53:28;101369.00;;;13.90
71463;BMP180;59266;52.608;13.260;2022-10-30T06:56:02;101372.00;;;13.90
71463;BMP180;59266;52.608;13.260;2022-10-30T06:58:29;101375.00;;;14.00
71463;BMP180;59266;52.608;13.260;2022-10-30T07:00:58;101379.00;;;14.00
71463;BMP180;59266;52.608;13.260;2022-10-30T07:03:25;101374.00;;;14.00
71463;BMP180;59266;52.608;13.260;2022-10-30T07:05:52;101382.00;;;14.10
71463;BMP180;59266;52.608;13.260;2022-10-30T07:08:18;101372.00;;;14.20
71463;BMP180;59266;52.608;13.260;2022-10-30T07:10:45;101378.00;;;14.20
71463;BMP180;59266;52.608;13.260;2022-10-30T07:13:11;101373.00;;;14.20
71463;BMP180;59266;52.608;13.260;2022-10-30T07:15:38;101374.00;;;14.40
71463;BMP180;59266;52.608;13.260;2022-10-30T07:18:04;101369.00;;;14.50
71463;BMP180;59266;52.608;13.260;2022-10-30T07:20:33;101372.00;;;14.60
71463;BMP180;59266;52.608;13.260;2022-10-30T07:23:00;101374.00;;;14.90
71463;BMP180;59266;52.608;13.260;2022-10-30T07:25:27;101373.00;;;15.80
71463;BMP180;59266;52.608;13.260;2022-10-30T07:27:55;101373.00;;;17.40
71463;BMP180;59266;52.608;13.260;2022-10-30T07:30:24;101381.00;;;18.80
71463;BMP180;59266;52.608;13.260;2022-10-30T07:32:57;101384.00;;;19.40
71463;BMP180;59266;52.608;13.260;2022-10-30T07:35:25;101384.00;;;19.90
71463;BMP180;59266;52.608;13.260;2022-10-30T07:37:51;101387.00;;;20.30
71463;BMP180;59266;52.608;13.260;2022-10-30T07:40:18;101392.00;;;21.40
71463;BMP180;59266;52.608;13.260;2022-10-30T07:42:45;101391.00;;;22.30
71463;BMP180;59266;52.608;13.260;2022-10-30T07:45:11;101386.00;;;21.40
71463;BMP180;59266;52.608;13.260;2022-10-30T07:47:42;101384.00;;;22.80
71463;BMP180;59266;52.608;13.260;2022-10-30T07:50:09;101385.00;;;23.90
71463;BMP180;59266;52.608;13.260;2022-10-30T07:52:36;101393.00;;;23.80
71463;BMP180;59266;52.608;13.260;2022-10-30T07:55:03;101397.00;;;23.30
71463;BMP180;59266;52.608;13.260;2022-10-30T07:57:37;101389.00;;;23.60
71463;BMP180;59266;52.608;13.260;2022-10-30T08:00:05;101395.00;;;25.30
71463;BMP180;59266;52.608;13.260;2022-10-30T08:02:32;101403.00;;;25.30
71463;BMP180;59266;52.608;13.260;2022-10-30T08:04:59;101398.00;;;23.50
71463;BMP180;59266;52.608;13.260;2022-10-30T08:07:29;101398.00;;;22.40
71463;BMP180;59266;52.608;13.260;2022-10-30T08:09:56;101421.00;;;21.70
71463;BMP180;59266;52.608;13.260;2022-10-30T08:12:24;101410.00;;;21.20
71463;BMP180;59266;52.608;13.260;2022-10-30T08:14:50;101412.00;;;20.90
71463;BMP180;59266;52.608;13.260;2022-10-30T08:17:18;101419.00;;;20.30
71463;BMP180;59266;52.608;13.260;2022-10-30T08:19:45;101410.00;;;20.00
71463;BMP180;59266;52.608;13.260;2022-10-30T08:22:12;101400.00;;;19.90
71463;BMP180;59266;52.608;13.260;2022-10-30T08:24:39;101397.00;;;19.50
71463;BMP180;59266;52.608;13.260;2022-10-30T08:27:05;101414.00;;;19.60
71463;BMP180;59266;52.608;13.260;2022-10-30T08:29:32;101405.00;;;19.60
71463;BMP180;59266;52.608;13.260;2022-10-30T08:32:02;101402.00;;;19.90
71463;BMP180;59266;52.608;13.260;2022-10-30T08:34:29;101401.00;;;20.00
71463;BMP180;59266;52.608;13.260;2022-10-30T08:36:57;101406.00;;;19.70
71463;BMP180;59266;52.608;13.260;2022-10-30T08:39:25;101410.00;;;18.70
71463;BMP180;59266;52.608;13.260;2022-10-30T08:41:51;101409.00;;;18.80
71463;BMP180;59266;52.608;13.260;2022-10-30T08:44:18;101410.00;;;18.60
71463;BMP180;59266;52.608;13.260;2022-10-30T08:46:44;101406.00;;;18.50
71463;BMP180;59266;52.608;13.260;2022-10-30T08:49:11;101412.00;;;18.50
71463;BMP180;59266;52.608;13.260;2022-10-30T08:51:37;101401.00;;;18.70
71463;BMP180;59266;52.608;13.260;2022-10-30T08:54:04;101398.00;;;18.90
71463;BMP180;59266;52.608;13.260;2022-10-30T08:56:30;101400.00;;;18.90
71463;BMP180;59266;52.608;13.260;2022-10-30T08:58:57;101401.00;;;18.60
71463;BMP180;59266;52.608;13.260;2022-10-30T09:01:23;101402.00;;;19.10
71463;BMP180;59266;52.608;13.260;2022-10-30T09:03:50;101396.00;;;19.00
71463;BMP180;59266;52.608;13.260;2022-10-30T09:06:17;101393.00;;;19.70
71463;BMP180;59266;52.608;13.260;2022-10-30T09:08:45;101402.00;;;20.00
71463;BMP180;59266;52.608;13.260;2022-10-30T09:11:11;101397.00;;;20.10
71463;BMP180;59266;52.608;13.260;2022-10-30T09:13:38;101393.00;;;19.90
71463;BMP180;59266;52.608;13.260;2022-10-30T09:16:05;101394.00;;;20.00
71463;BMP180;59266;52.608;13.260;2022-10-30T09:18:31;101389.00;;;19.90
71463;BMP180;59266;52.608;13.260;2022-10-30T09:20:58;101397.00;;;20.10
71463;BMP180;59266;52.608;13.260;2022-10-30T09:23:30;101391.00;;;20.20
71463;BMP180;59266;52.608;13.260;2022-10-30T09:25:59;101399.00;;;19.70
71463;BMP180;59266;52.608;13.260;2022-10-30T09:28:25;101392.00;;;19.90
71463;BMP180;59266;52.608;13.260;2022-10-30T09:30:51;101395.00;;;19.60
71463;BMP180;59266;52.608;13.260;2022-10-30T09:33:22;101388.00;;;19.70
71463;BMP180;59266;52.608;13.260;2022-10-30T09:35:48;101380.00;;;19.70
71463;BMP180;59266;52.608;13.260;2022-10-30T09:38:15;101387.00;;;19.80
71463;BMP180;59266;52.608;13.260;2022-10-30T09:46:46;101385.00;;;19.70
71463;BMP180;59266;52.608;13.260;2022-10-30T09:52:27;101380.00;;;19.90
71463;BMP180;59266;52.608;13.260;2022-10-30T09:55:07;101384.00;;;19.90
71463;BMP180;59266;52.608;13.260;2022-10-30T09:57:53;101393.00;;;19.80
71463;BMP180;59266;52.608;13.260;2022-10-30T10:00:29;101401.00;;;19.70
71463;BMP180;59266;52.608;13.260;2022-10-30T10:03:11;101406.00;;;20.00
71463;BMP180;59266;52.608;13.260;2022-10-30T10:05:46;101397.00;;;20.10
71463;BMP180;59266;52.608;13.260;2022-10-30T10:08:18;101407.00;;;19.80
71463;BMP180;59266;52.608;13.260;2022-10-30T10:10:57;101396.00;;;20.00
71463;BMP180;59266;52.608;13.260;2022-10-30T10:13:34;101402.00;;;20.10
71463;BMP180;59266;52.608;13.260;2022-10-30T10:16:11;101404.00;;;20.40
71463;BMP180;59266;52.608;13.260;2022-10-30T10:18:46;101401.00;;;21.60
71463;BMP180;59266;52.608;13.260;2022-10-30T10:21:23;101389.00;;;23.30
71463;BMP180;59266;52.608;13.260;2022-10-30T10:23:54;101396.00;;;24.20
71463;BMP180;59266;52.608;13.260;2022-10-30T10:26:43;101397.00;;;24.60
71463;BMP180;59266;52.608;13.260;2022-10-30T10:29:30;101404.00;;;25.00
71463;BMP180;59266;52.608;13.260;2022-10-30T10:37:42;101396.00;;;25.90
71463;BMP180;59266;52.608;13.260;2022-10-30T10:43:07;101393.00;;;27.70
71463;BMP180;59266;52.608;13.260;2022-10-30T10:45:46;101401.00;;;28.90
71463;BMP180;59266;52.608;13.260;2022-10-30T10:48:24;101389.00;;;27.40
71463;BMP180;59266;52.608;13.260;2022-10-30T10:51:03;101397.00;;;29.20
71463;BMP180;59266;52.608;13.260;2022-10-30T10:53:54;101387.00;;;29.50
71463;BMP180;59266;52.608;13.260;2022-10-30T10:56:26;101386.00;;;29.40
71463;BMP180;59266;52.608;13.260;2022-10-30T10:58:58;101385.00;;;29.40
71463;BMP180;59266;52.608;13.260;2022-10-30T11:01:34;101391.00;;;30.20
71463;BMP180;59266;52.608;13.260;2022-10-30T11:04:13;101380.00;;;30.70
71463;BMP180;59266;52.608;13.260;2022-10-30T11:06:48;101378.00;;;31.30
71463;BMP180;59266;52.608;13.260;2022-10-30T11:09:18;101376.00;;;32.50
71463;BMP180;59266;52.608;13.260;2022-10-30T11:11:46;101375.00;;;31.60
71463;BMP180;59266;52.608;13.260;2022-10-30T11:14:15;101369.00;;;31.70
71463;BMP180;59266;52.608;13.260;2022-10-30T11:19:28;101377.00;;;31.10
71463;BMP180;59266;52.608;13.260;2022-10-30T11:21:56;101383.00;;;30.80
71463;BMP180;59266;52.608;13.260;2022-10-30T11:24:31;101383.00;;;30.30
71463;BMP180;59266;52.608;13.260;2022-10-30T11:27:25;101389.00;;;29.50
71463;BMP180;59266;52.608;13.260;2022-10-30T11:29:58;101386.00;;;31.10
71463;BMP180;59266;52.608;13.260;2022-10-30T11:32:27;101383.00;;;30.30
71463;BMP180;59266;52.608;13.260;2022-10-30T11:37:38;101388.00;;;30.50
71463;BMP180;59266;52.608;13.260;2022-10-30T11:42:34;101389.00;;;30.10
71463;BMP180;59266;52.608;13.260;2022-10-30T11:45:01;101389.00;;;30.40
71463;BMP180;59266;52.608;13.260;2022-10-30T11:47:35;101394.00;;;30.50
71463;BMP180;59266;52.608;13.260;2022-10-30T11:50:05;101392.00;;;29.30
71463;BMP180;59266;52.608;13.260;2022-10-30T11:52:39;101395.00;;;28.90
71463;BMP180;59266;52.608;13.260;2022-10-30T11:55:16;101396.00;;;28.70
71463;BMP180;59266;52.608;13.260;2022-10-30T11:57:49;101400.00;;;29.30
71463;BMP180;59266;52.608;13.260;2022-10-30T12:00:25;101388.00;;;29.30
71463;BMP180;59266;52.608;13.260;2022-10-30T12:02:56;101395.00;;;29.00
71463;BMP180;59266;52.608;13.260;2022-10-30T12:05:39;101401.00;;;28.90
71463;BMP180;59266;52.608;13.260;2022-10-30T12:08:16;101398.00;;;28.30
71463;BMP180;59266;52.608;13.260;2022-10-30T12:10:44;101396.00;;;27.70
71463;BMP180;59266;52.608;13.260;2022-10-30T12:13:19;101400.00;;;27.50
71463;BMP180;59266;52.608;13.260;2022-10-30T12:15:48;101402.00;;;27.70
71463;BMP180;59266;52.608;13.260;2022-10-30T12:18:22;101398.00;;;27.20
71463;BMP180;59266;52.608;13.260;2022-10-30T12:20:52;101397.00;;;27.10
71463;BMP180;59266;52.608;13.260;2022-10-30T12:23:21;101404.00;;;27.50
71463;BMP180;59266;52.608;13.260;2022-10-30T12:26:10;101405.00;;;27.00
71463;BMP180;59266;52.608;13.260;2022-10-30T12:28:38;101404.00;;;27.60
71463;BMP180;59266;52.608;13.260;2022-10-30T12:31:12;101400.00;;;27.00
71463;BMP180;59266;52.608;13.260;2022-10-30T12:34:05;101404.00;;;27.10
71463;BMP180;59266;52.608;13.260;2022-10-30T12:36:37;101397.00;;;26.90
71463;BMP180;59266;52.608;13.260;2022-10-30T12:39:20;101392.00;;;26.90
71463;BMP180;59266;52.608;13.260;2022-10-30T12:42:02;101393.00;;;27.50
71463;BMP180;59266;52.608;13.260;2022-10-30T12:44:35;101396.00;;;27.60
71463;BMP180;59266;52.608;13.260;2022-10-30T12:47:11;101395.00;;;26.60
71463;BMP180;59266;52.608;13.260;2022-10-30T12:50:00;101391.00;;;26.80
71463;BMP180;59266;52.608;13.260;2022-10-30T12:52:28;101390.00;;;27.40
71463;BMP180;59266;52.608;13.260;2022-10-30T12:55:22;101396.00;;;27.20
71463;BMP180;59266;52.608;13.260;2022-10-30T13:01:00;101399.00;;;27.30
71463;BMP180;59266;52.608;13.260;2022-10-30T13:03:40;101395.00;;;27.10
71463;BMP180;59266;52.608;13.260;2022-10-30T13:06:21;101402.00;;;27.20
71463;BMP180;59266;52.608;13.260;2022-10-30T13:09:02;101401.00;;;26.60
71463;BMP180;59266;52.608;13.260;2022-10-30T13:11:41;101392.00;;;26.50
71463;BMP180;59266;52.608;13.260;2022-10-30T13:14:19;101387.00;;;27.10
71463;BMP180;59266;52.608;13.260;2022-10-30T13:16:49;101385.00;;;26.80
71463;BMP180;59266;52.608;13.260;2022-10-30T13:19:16;101385.00;;;26.70
71463;BMP180;59266;52.608;13.260;2022-10-30T13:21:59;101384.00;;;26.20
71463;BMP180;59266;52.608;13.260;2022-10-30T13:27:39;101377.00;;;26.10
71463;BMP180;59266;52.608;13.260;2022-10-30T13:30:18;101379.00;;;26.60
71463;BMP180;59266;52.608;13.260;2022-10-30T13:33:11;101385.00;;;26.70
71463;BMP180;59266;52.608;13.260;2022-10-30T13:35:47;101380.00;;;25.90
71463;BMP180;59266;52.608;13.260;2022-10-30T13:44:09;101382.00;;;25.70
71463;BMP180;59266;52.608;13.260;2022-10-30T13:52:36;101378.00;;;25.60
71463;BMP180;59266;52.608;13.260;2022-10-30T13:55:23;101385.00;;;25.10
71463;BMP180;59266;52.608;13.260;2022-10-30T13:58:10;101384.00;;;25.40
71463;BMP180;59266;52.608;13.260;2022-10-30T14:01:00;101386.00;;;25.80
71463;BMP180;59266;52.608;13.260;2022-10-30T14:03:55;101389.00;;;25.50
71463;BMP180;59266;52.608;13.260;2022-10-30T14:06:38;101391.00;;;24.90
71463;BMP180;59266;52.608;13.260;2022-10-30T14:12:46;101381.00;;;24.40
71463;BMP180;59266;52.608;13.260;2022-10-30T14:15:24;101388.00;;;24.60
71463;BMP180;59266;52.608;13.260;2022-10-30T14:20:41;101382.00;;;24.60
71463;BMP180;59266;52.608;13.260;2022-10-30T14:28:34;101390.00;;;24.60
71463;BMP180;59266;52.608;13.260;2022-10-30T14:33:42;101392.00;;;24.30
71463;BMP180;59266;52.608;13.260;2022-10-30T14:36:20;101393.00;;;24.10
71463;BMP180;59266;52.608;13.260;2022-10-30T14:41:47;101397.00;;;23.80
71463;BMP180;59266;52.608;13.260;2022-10-30T14:44:50;101397.00;;;23.40
71463;BMP180;59266;52.608;13.260;2022-10-30T14:47:36;101409.00;;;23.30
71463;BMP180;59266;52.608;13.260;2022-10-30T14:50:30;101401.00;;;23.20
71463;BMP180;59266;52.608;13.260;2022-10-30T14:56:06;101402.00;;;22.80
71463;BMP180;59266;52.608;13.260;2022-10-30T14:58:37;101409.00;;;22.70
71463;BMP180;59266;52.608;13.260;2022-10-30T15:01:24;101396.00;;;22.30
71463;BMP180;59266;52.608;13.260;2022-10-30T15:07:25;101399.00;;;21.90
71463;BMP180;59266;52.608;13.260;2022-10-30T15:10:11;101393.00;;;21.80
71463;BMP180;59266;52.608;13.260;2022-10-30T15:15:31;101401.00;;;21.30
71463;BMP180;59266;52.608;13.260;2022-10-30T15:18:02;101392.00;;;21.20
71463;BMP180;59266;52.608;13.260;2022-10-30T15:20:30;101391.00;;;21.00
71463;BMP180;59266;52.608;13.260;2022-10-30T15:23:05;101402.00;;;20.90
71463;BMP180;59266;52.608;13.260;2022-10-30T15:25:36;101401.00;;;20.70
71463;BMP180;59266;52.608;13.260;2022-10-30T15:28:03;101401.00;;;20.50
71463;BMP180;59266;52.608;13.260;2022-10-30T15:30:30;101395.00;;;20.40
71463;BMP180;59266;52.608;13.260;2022-10-30T15:32:56;101393.00;;;20.20